Jacksonville, FL (32216)

9:01 AM EDT on August 29, 2015 (GMT -0400)
Southside | | Change Station
CLOSE
Current Station
Personal Weather Station
Location: Jacksonville, FL
Elevation: 33 ft
Nearby Weather Stations

Elev 33 ft 30.28 °N, 81.58 °W | Updated 5 seconds ago

Partly Cloudy
Partly Cloudy
76.3 °F
Feels Like 76 °F
N
0.9
Wind Variable Wind from SW
Gusts 2.5 mph

Today
High -- | Low -- °F
--% Chance of Precip.
Yesterday
High -- | Low -- °F
Precip. -- in
7:01 AM 7:52 PM
Full, 100% visible
Pressure 30.11 in
Visibility 7.0 miles
Clouds Few 1800 ft
Scattered Clouds 3200 ft
Mostly Cloudy 4200 ft
Heat Index 76 °F
Dew Point 76 °F
Humidity 98%
Rainfall 0.00 in
Snow Depth Not available.
UV 1.0 out of 12
Pollen 4.00 out of 12
Air Quality Not available.
Flu Activity Not available.
METAR KCRG 291253Z 04004KT 7SM FEW018 SCT032 BKN042 26/24 A3011 RMK AO2 RAE00B34E49 SLP195 P0003 T02610239
Pressure 30.11 in
Visibility 7.0 miles
Clouds Few 1800 ft
Scattered Clouds 3200 ft
Mostly Cloudy 4200 ft
Heat Index 76 °F
Dew Point 76 °F
Humidity 98%
Rainfall 0.00 in
Snow Depth Not available.
UV 1.0 out of 12
Pollen 4.00 out of 12
Air Quality Not available.
Flu Activity Not available.
METAR KCRG 291253Z 04004KT 7SM FEW018 SCT032 BKN042 26/24 A3011 RMK AO2 RAE00B34E49 SLP195 P0003 T02610239
Erika has become very unorganized in the face of strong wind shear in the eastern Caribbean Sea. The storm will pass directly over mountainous Hispaniola today, likely weakening it further. If the storm remains intact, it could reach an area favorable for strengthening before moving onto Florida by early next week. Follow the live blog

10-Day Weather Forecast

×

Almanac

Astronomy

Aug. 29, 2015 Rise Set
Actual Time
Civil Twilight
Nautical Twilight
Astronomical Twilight
Moon
Length of Visible Light
Length of Day
Tomorrow will be .
, % of the Moon is Illuminated

Today's Extremes

State Highs State Lows

Community

WunderPhotos

Upload Photos

1,850,681 photos uploaded!

WunderBlogs® & News

Nearby

Air Quality

  Air Quality AQ Index Pollutant
Not available.

Snow Depth

Station Depth Elevation

Earthquake Activity

City Distance Mag. Time & Date
Minimum magnitude displayed is 2.5.

Coastal Water Temperatures

Place Temperature

Stations

Nearby Weather Stations

Station Location Temp. Windchill Dew Point Humidity Wind Precip. Elev Updated Type